sensor_id;sensor_type;location;lat;lon;timestamp;temperature;humidity
63051;SHT30;49136;47.416;19.402;2023-03-05T00:01:29;-0.90;92.50
63051;SHT30;49136;47.416;19.402;2023-03-05T00:03:57;-1.01;92.81
63051;SHT30;49136;47.416;19.402;2023-03-05T00:06:25;-1.00;92.99
63051;SHT30;49136;47.416;19.402;2023-03-05T00:08:51;-1.11;93.34
63051;SHT30;49136;47.416;19.402;2023-03-05T00:11:18;-1.04;93.78
63051;SHT30;49136;47.416;19.402;2023-03-05T00:13:44;-1.05;94.04
63051;SHT30;49136;47.416;19.402;2023-03-05T00:16:12;-1.04;93.96
63051;SHT30;49136;47.416;19.402;2023-03-05T00:18:38;-1.07;93.68
63051;SHT30;49136;47.416;19.402;2023-03-05T00:21:05;-1.14;93.91
63051;SHT30;49136;47.416;19.402;2023-03-05T00:23:41;-1.15;94.19
63051;SHT30;49136;47.416;19.402;2023-03-05T00:26:06;-0.93;94.21
63051;SHT30;49136;47.416;19.402;2023-03-05T00:28:32;-0.93;94.34
63051;SHT30;49136;47.416;19.402;2023-03-05T00:31:00;-0.91;94.16
63051;SHT30;49136;47.416;19.402;2023-03-05T00:33:26;-0.81;94.27
63051;SHT30;49136;47.416;19.402;2023-03-05T00:35:51;-0.80;93.79
63051;SHT30;49136;47.416;19.402;2023-03-05T00:38:17;-0.73;93.73
63051;SHT30;49136;47.416;19.402;2023-03-05T00:40:42;-0.69;93.70
63051;SHT30;49136;47.416;19.402;2023-03-05T00:43:08;-0.45;93.22
63051;SHT30;49136;47.416;19.402;2023-03-05T00:45:34;-0.45;92.81
63051;SHT30;49136;47.416;19.402;2023-03-05T00:48:00;-0.48;93.13
63051;SHT30;49136;47.416;19.402;2023-03-05T00:50:26;-0.27;92.68
63051;SHT30;49136;47.416;19.402;2023-03-05T00:52:52;-0.29;92.52
63051;SHT30;49136;47.416;19.402;2023-03-05T00:55:17;-0.36;92.59
63051;SHT30;49136;47.416;19.402;2023-03-05T00:57:43;-0.42;92.84
63051;SHT30;49136;47.416;19.402;2023-03-05T01:00:09;-0.20;92.62
63051;SHT30;49136;47.416;19.402;2023-03-05T01:02:35;-0.22;92.52
63051;SHT30;49136;47.416;19.402;2023-03-05T01:05:00;-0.27;92.34
63051;SHT30;49136;47.416;19.402;2023-03-05T01:07:26;-0.21;92.39
63051;SHT30;49136;47.416;19.402;2023-03-05T01:09:51;0.11;91.45
63051;SHT30;49136;47.416;19.402;2023-03-05T01:12:17;0.06;91.58
63051;SHT30;49136;47.416;19.402;2023-03-05T01:14:42;0.10;91.55
63051;SHT30;49136;47.416;19.402;2023-03-05T01:17:08;0.17;91.23
63051;SHT30;49136;47.416;19.402;2023-03-05T01:19:33;0.29;90.48
63051;SHT30;49136;47.416;19.402;2023-03-05T01:21:58;0.22;90.80
63051;SHT30;49136;47.416;19.402;2023-03-05T01:24:24;0.34;90.43
63051;SHT30;49136;47.416;19.402;2023-03-05T01:26:50;0.34;90.66
63051;SHT30;49136;47.416;19.402;2023-03-05T01:29:15;0.34;90.41
63051;SHT30;49136;47.416;19.402;2023-03-05T01:31:41;0.15;90.62
63051;SHT30;49136;47.416;19.402;2023-03-05T01:34:06;0.07;91.18
63051;SHT30;49136;47.416;19.402;2023-03-05T01:36:32;0.03;91.76
63051;SHT30;49136;47.416;19.402;2023-03-05T01:38:57;-0.04;91.71
63051;SHT30;49136;47.416;19.402;2023-03-05T01:41:23;-0.01;91.96
63051;SHT30;49136;47.416;19.402;2023-03-05T01:43:49;-0.07;91.99
63051;SHT30;49136;47.416;19.402;2023-03-05T01:51:24;-0.46;92.82
63051;SHT30;49136;47.416;19.402;2023-03-05T01:53:52;-0.62;93.07
63051;SHT30;49136;47.416;19.402;2023-03-05T01:56:18;-0.72;93.65
63051;SHT30;49136;47.416;19.402;2023-03-05T01:58:44;-0.79;93.91
63051;SHT30;49136;47.416;19.402;2023-03-05T02:01:10;-0.90;94.23
63051;SHT30;49136;47.416;19.402;2023-03-05T02:03:36;-1.01;94.68
63051;SHT30;49136;47.416;19.402;2023-03-05T02:06:02;-1.07;94.97
63051;SHT30;49136;47.416;19.402;2023-03-05T02:08:27;-1.11;94.93
63051;SHT30;49136;47.416;19.402;2023-03-05T02:10:55;-1.12;95.01
63051;SHT30;49136;47.416;19.402;2023-03-05T02:13:27;-1.07;95.37
63051;SHT30;49136;47.416;19.402;2023-03-05T02:15:55;-1.05;95.46
63051;SHT30;49136;47.416;19.402;2023-03-05T02:18:22;-0.88;95.45
63051;SHT30;49136;47.416;19.402;2023-03-05T02:20:49;-0.70;95.13
63051;SHT30;49136;47.416;19.402;2023-03-05T02:23:16;-0.53;95.00
63051;SHT30;49136;47.416;19.402;2023-03-05T02:25:42;-0.22;94.57
63051;SHT30;49136;47.416;19.402;2023-03-05T02:28:18;0.00;93.63
63051;SHT30;49136;47.416;19.402;2023-03-05T02:30:46;0.32;92.65
63051;SHT30;49136;47.416;19.402;2023-03-05T02:33:15;0.49;92.26
63051;SHT30;49136;47.416;19.402;2023-03-05T02:35:42;0.76;91.04
63051;SHT30;49136;47.416;19.402;2023-03-05T02:38:15;0.77;90.99
63051;SHT30;49136;47.416;19.402;2023-03-05T02:40:41;0.67;91.13
63051;SHT30;49136;47.416;19.402;2023-03-05T02:43:06;0.69;91.22
63051;SHT30;49136;47.416;19.402;2023-03-05T02:45:32;0.66;91.01
63051;SHT30;49136;47.416;19.402;2023-03-05T02:47:58;0.65;91.07
63051;SHT30;49136;47.416;19.402;2023-03-05T02:50:25;0.67;91.05
63051;SHT30;49136;47.416;19.402;2023-03-05T02:52:51;0.72;90.83
63051;SHT30;49136;47.416;19.402;2023-03-05T02:55:17;0.70;90.85
63051;SHT30;49136;47.416;19.402;2023-03-05T02:57:42;0.72;90.85
63051;SHT30;49136;47.416;19.402;2023-03-05T03:00:08;0.74;90.61
63051;SHT30;49136;47.416;19.402;2023-03-05T03:02:34;0.77;90.40
63051;SHT30;49136;47.416;19.402;2023-03-05T03:04:59;0.85;90.45
63051;SHT30;49136;47.416;19.402;2023-03-05T03:07:25;0.87;90.28
63051;SHT30;49136;47.416;19.402;2023-03-05T03:09:50;0.80;90.55
63051;SHT30;49136;47.416;19.402;2023-03-05T03:12:16;0.85;90.29
63051;SHT30;49136;47.416;19.402;2023-03-05T03:14:42;0.85;90.48
63051;SHT30;49136;47.416;19.402;2023-03-05T03:17:14;0.83;90.38
63051;SHT30;49136;47.416;19.402;2023-03-05T03:19:41;0.88;90.23
63051;SHT30;49136;47.416;19.402;2023-03-05T03:22:09;0.93;90.08
63051;SHT30;49136;47.416;19.402;2023-03-05T03:24:36;0.90;90.01
63051;SHT30;49136;47.416;19.402;2023-03-05T03:27:02;0.98;90.04
63051;SHT30;49136;47.416;19.402;2023-03-05T03:29:27;1.04;89.71
63051;SHT30;49136;47.416;19.402;2023-03-05T03:31:53;1.08;89.61
63051;SHT30;49136;47.416;19.402;2023-03-05T03:34:19;1.01;89.78
63051;SHT30;49136;47.416;19.402;2023-03-05T03:36:46;1.01;89.84
63051;SHT30;49136;47.416;19.402;2023-03-05T03:39:13;1.08;89.64
63051;SHT30;49136;47.416;19.402;2023-03-05T03:41:48;1.08;89.84
63051;SHT30;49136;47.416;19.402;2023-03-05T03:44:14;1.09;89.45
63051;SHT30;49136;47.416;19.402;2023-03-05T03:46:42;1.19;89.15
63051;SHT30;49136;47.416;19.402;2023-03-05T03:49:18;1.19;89.26
63051;SHT30;49136;47.416;19.402;2023-03-05T03:51:44;1.19;89.33
63051;SHT30;49136;47.416;19.402;2023-03-05T03:54:10;1.19;89.29
63051;SHT30;49136;47.416;19.402;2023-03-05T03:56:36;1.25;89.13
63051;SHT30;49136;47.416;19.402;2023-03-05T03:59:02;1.25;89.39
63051;SHT30;49136;47.416;19.402;2023-03-05T04:01:27;1.31;89.07
63051;SHT30;49136;47.416;19.402;2023-03-05T04:03:52;1.38;88.98
63051;SHT30;49136;47.416;19.402;2023-03-05T04:06:18;1.31;89.00
63051;SHT30;49136;47.416;19.402;2023-03-05T04:08:43;1.32;89.01
63051;SHT30;49136;47.416;19.402;2023-03-05T04:11:09;1.29;89.00
63051;SHT30;49136;47.416;19.402;2023-03-05T04:13:34;1.26;89.17
63051;SHT30;49136;47.416;19.402;2023-03-05T04:16:00;1.24;89.47
63051;SHT30;49136;47.416;19.402;2023-03-05T04:18:25;1.26;89.38
63051;SHT30;49136;47.416;19.402;2023-03-05T04:20:51;1.24;89.48
63051;SHT30;49136;47.416;19.402;2023-03-05T04:23:16;1.21;89.72
63051;SHT30;49136;47.416;19.402;2023-03-05T04:25:42;1.24;89.52
63051;SHT30;49136;47.416;19.402;2023-03-05T04:28:08;1.24;89.34
63051;SHT30;49136;47.416;19.402;2023-03-05T04:30:33;1.28;89.24
63051;SHT30;49136;47.416;19.402;2023-03-05T04:32:59;1.28;89.45
63051;SHT30;49136;47.416;19.402;2023-03-05T04:35:25;1.29;89.30
63051;SHT30;49136;47.416;19.402;2023-03-05T04:37:50;1.34;89.26
63051;SHT30;49136;47.416;19.402;2023-03-05T04:40:16;1.42;88.97
63051;SHT30;49136;47.416;19.402;2023-03-05T04:42:42;1.38;88.91
63051;SHT30;49136;47.416;19.402;2023-03-05T04:45:08;1.46;88.43
63051;SHT30;49136;47.416;19.402;2023-03-05T04:47:35;1.47;88.55
63051;SHT30;49136;47.416;19.402;2023-03-05T04:50:01;1.47;88.70
63051;SHT30;49136;47.416;19.402;2023-03-05T04:52:28;1.40;88.84
63051;SHT30;49136;47.416;19.402;2023-03-05T04:54:54;1.35;89.10
63051;SHT30;49136;47.416;19.402;2023-03-05T04:57:19;1.32;89.62
63051;SHT30;49136;47.416;19.402;2023-03-05T04:59:45;1.31;89.80
63051;SHT30;49136;47.416;19.402;2023-03-05T05:02:11;1.32;89.85
63051;SHT30;49136;47.416;19.402;2023-03-05T05:04:36;1.34;90.04
63051;SHT30;49136;47.416;19.402;2023-03-05T05:07:03;1.32;89.87
63051;SHT30;49136;47.416;19.402;2023-03-05T05:09:29;1.34;89.94
63051;SHT30;49136;47.416;19.402;2023-03-05T05:11:54;1.39;89.60
63051;SHT30;49136;47.416;19.402;2023-03-05T05:14:20;1.47;89.38
63051;SHT30;49136;47.416;19.402;2023-03-05T05:16:45;1.46;89.36
63051;SHT30;49136;47.416;19.402;2023-03-05T05:19:11;1.54;89.39
63051;SHT30;49136;47.416;19.402;2023-03-05T05:21:36;1.56;88.93
63051;SHT30;49136;47.416;19.402;2023-03-05T05:24:02;1.60;88.98
63051;SHT30;49136;47.416;19.402;2023-03-05T05:26:27;1.61;88.84
63051;SHT30;49136;47.416;19.402;2023-03-05T05:28:53;1.61;89.05
63051;SHT30;49136;47.416;19.402;2023-03-05T05:31:18;1.61;89.14
63051;SHT30;49136;47.416;19.402;2023-03-05T05:33:44;1.64;89.35
63051;SHT30;49136;47.416;19.402;2023-03-05T05:36:15;1.68;89.24
63051;SHT30;49136;47.416;19.402;2023-03-05T05:38:41;1.71;88.89
63051;SHT30;49136;47.416;19.402;2023-03-05T05:41:09;1.75;88.95
63051;SHT30;49136;47.416;19.402;2023-03-05T05:43:36;1.77;88.96
63051;SHT30;49136;47.416;19.402;2023-03-05T05:46:04;1.79;89.04
63051;SHT30;49136;47.416;19.402;2023-03-05T05:48:31;1.85;88.64
63051;SHT30;49136;47.416;19.402;2023-03-05T05:50:57;1.93;88.57
63051;SHT30;49136;47.416;19.402;2023-03-05T05:53:23;1.94;88.61
63051;SHT30;49136;47.416;19.402;2023-03-05T05:55:50;2.05;88.02
63051;SHT30;49136;47.416;19.402;2023-03-05T05:58:15;2.04;88.23
63051;SHT30;49136;47.416;19.402;2023-03-05T06:00:41;2.12;87.95
63051;SHT30;49136;47.416;19.402;2023-03-05T06:03:06;2.18;87.60
63051;SHT30;49136;47.416;19.402;2023-03-05T06:05:33;2.23;87.49
63051;SHT30;49136;47.416;19.402;2023-03-05T06:07:58;2.29;87.42
63051;SHT30;49136;47.416;19.402;2023-03-05T06:10:24;2.36;87.08
63051;SHT30;49136;47.416;19.402;2023-03-05T06:12:50;2.40;87.03
63051;SHT30;49136;47.416;19.402;2023-03-05T06:15:15;2.46;86.88
63051;SHT30;49136;47.416;19.402;2023-03-05T06:17:41;2.50;86.75
63051;SHT30;49136;47.416;19.402;2023-03-05T06:20:07;2.50;86.88
63051;SHT30;49136;47.416;19.402;2023-03-05T06:22:37;2.51;87.16
63051;SHT30;49136;47.416;19.402;2023-03-05T06:25:04;2.51;86.92
63051;SHT30;49136;47.416;19.402;2023-03-05T06:27:29;2.53;86.77
63051;SHT30;49136;47.416;19.402;2023-03-05T06:29:55;2.54;86.88
63051;SHT30;49136;47.416;19.402;2023-03-05T06:32:21;2.60;86.70
63051;SHT30;49136;47.416;19.402;2023-03-05T06:34:47;2.64;86.70
63051;SHT30;49136;47.416;19.402;2023-03-05T06:37:12;2.71;86.16
63051;SHT30;49136;47.416;19.402;2023-03-05T06:39:38;2.74;86.01
63051;SHT30;49136;47.416;19.402;2023-03-05T06:42:03;2.77;85.79
63051;SHT30;49136;47.416;19.402;2023-03-05T06:44:29;2.82;85.87
63051;SHT30;49136;47.416;19.402;2023-03-05T06:46:54;2.92;85.56
63051;SHT30;49136;47.416;19.402;2023-03-05T06:49:20;2.99;85.00
63051;SHT30;49136;47.416;19.402;2023-03-05T06:51:45;3.07;84.98
63051;SHT30;49136;47.416;19.402;2023-03-05T06:54:13;3.14;84.72
63051;SHT30;49136;47.416;19.402;2023-03-05T06:56:40;3.23;84.28
63051;SHT30;49136;47.416;19.402;2023-03-05T06:59:07;3.28;84.08
63051;SHT30;49136;47.416;19.402;2023-03-05T07:01:32;3.40;83.72
63051;SHT30;49136;47.416;19.402;2023-03-05T07:03:58;3.42;83.12
63051;SHT30;49136;47.416;19.402;2023-03-05T07:06:25;3.58;83.09
63051;SHT30;49136;47.416;19.402;2023-03-05T07:08:54;3.62;82.32
63051;SHT30;49136;47.416;19.402;2023-03-05T07:11:20;3.83;82.41
63051;SHT30;49136;47.416;19.402;2023-03-05T07:13:47;3.87;82.16
63051;SHT30;49136;47.416;19.402;2023-03-05T07:16:15;3.93;82.47
63051;SHT30;49136;47.416;19.402;2023-03-05T07:18:41;3.99;82.01
63051;SHT30;49136;47.416;19.402;2023-03-05T07:21:07;4.09;81.64
63051;SHT30;49136;47.416;19.402;2023-03-05T07:23:33;4.10;81.33
63051;SHT30;49136;47.416;19.402;2023-03-05T07:26:00;4.18;80.49
63051;SHT30;49136;47.416;19.402;2023-03-05T07:28:26;4.20;80.54
63051;SHT30;49136;47.416;19.402;2023-03-05T07:31:03;4.27;80.51
63051;SHT30;49136;47.416;19.402;2023-03-05T07:33:28;4.28;80.27
63051;SHT30;49136;47.416;19.402;2023-03-05T07:35:54;4.40;80.03
63051;SHT30;49136;47.416;19.402;2023-03-05T07:38:20;4.45;80.07
63051;SHT30;49136;47.416;19.402;2023-03-05T07:40:46;4.55;80.25
63051;SHT30;49136;47.416;19.402;2023-03-05T07:43:11;4.53;79.88
63051;SHT30;49136;47.416;19.402;2023-03-05T07:45:41;4.51;80.00
63051;SHT30;49136;47.416;19.402;2023-03-05T07:48:11;4.53;79.76
63051;SHT30;49136;47.416;19.402;2023-03-05T07:50:37;4.60;79.85
63051;SHT30;49136;47.416;19.402;2023-03-05T07:53:03;4.55;79.80
63051;SHT30;49136;47.416;19.402;2023-03-05T07:55:29;4.63;79.88
63051;SHT30;49136;47.416;19.402;2023-03-05T07:57:54;4.65;79.06
63051;SHT30;49136;47.416;19.402;2023-03-05T08:00:20;4.68;79.28
63051;SHT30;49136;47.416;19.402;2023-03-05T08:02:45;4.59;79.19
63051;SHT30;49136;47.416;19.402;2023-03-05T08:05:12;4.60;79.54
63051;SHT30;49136;47.416;19.402;2023-03-05T08:07:38;4.69;79.41
63051;SHT30;49136;47.416;19.402;2023-03-05T08:10:04;4.62;78.93
63051;SHT30;49136;47.416;19.402;2023-03-05T08:12:29;4.59;79.21
63051;SHT30;49136;47.416;19.402;2023-03-05T08:14:55;4.65;79.17
63051;SHT30;49136;47.416;19.402;2023-03-05T08:17:20;4.68;79.26
63051;SHT30;49136;47.416;19.402;2023-03-05T08:19:46;4.73;79.16
63051;SHT30;49136;47.416;19.402;2023-03-05T08:22:11;4.75;78.97
63051;SHT30;49136;47.416;19.402;2023-03-05T08:24:37;4.73;78.82
63051;SHT30;49136;47.416;19.402;2023-03-05T08:27:02;4.77;79.27
63051;SHT30;49136;47.416;19.402;2023-03-05T08:29:28;4.80;79.17
63051;SHT30;49136;47.416;19.402;2023-03-05T08:31:53;4.88;78.63
63051;SHT30;49136;47.416;19.402;2023-03-05T08:34:20;4.94;78.39
63051;SHT30;49136;47.416;19.402;2023-03-05T08:36:46;4.88;78.21
63051;SHT30;49136;47.416;19.402;2023-03-05T08:39:11;4.93;78.73
63051;SHT30;49136;47.416;19.402;2023-03-05T08:41:37;4.93;78.59
63051;SHT30;49136;47.416;19.402;2023-03-05T08:44:03;4.97;77.70
63051;SHT30;49136;47.416;19.402;2023-03-05T08:46:28;4.98;77.91
63051;SHT30;49136;47.416;19.402;2023-03-05T08:48:54;5.11;78.37
63051;SHT30;49136;47.416;19.402;2023-03-05T08:51:22;5.31;77.63
63051;SHT30;49136;47.416;19.402;2023-03-05T08:53:52;5.38;76.70
63051;SHT30;49136;47.416;19.402;2023-03-05T08:56:18;5.39;76.97
63051;SHT30;49136;47.416;19.402;2023-03-05T08:58:44;5.47;76.64
63051;SHT30;49136;47.416;19.402;2023-03-05T09:01:11;5.50;76.15
63051;SHT30;49136;47.416;19.402;2023-03-05T09:03:37;5.53;76.24
63051;SHT30;49136;47.416;19.402;2023-03-05T09:06:05;5.69;76.57
63051;SHT30;49136;47.416;19.402;2023-03-05T09:08:32;5.70;76.44
63051;SHT30;49136;47.416;19.402;2023-03-05T09:11:00;5.53;76.34
63051;SHT30;49136;47.416;19.402;2023-03-05T09:13:26;5.62;76.42
63051;SHT30;49136;47.416;19.402;2023-03-05T09:15:57;5.69;76.41
63051;SHT30;49136;47.416;19.402;2023-03-05T09:18:22;5.81;76.31
63051;SHT30;49136;47.416;19.402;2023-03-05T09:20:48;5.78;75.94
63051;SHT30;49136;47.416;19.402;2023-03-05T09:23:13;5.78;76.02
63051;SHT30;49136;47.416;19.402;2023-03-05T09:25:40;5.74;76.33
63051;SHT30;49136;47.416;19.402;2023-03-05T09:28:06;5.93;76.46
63051;SHT30;49136;47.416;19.402;2023-03-05T09:30:31;5.83;76.19
63051;SHT30;49136;47.416;19.402;2023-03-05T09:32:59;5.90;75.92
63051;SHT30;49136;47.416;19.402;2023-03-05T09:35:25;5.93;76.00
63051;SHT30;49136;47.416;19.402;2023-03-05T09:37:50;5.86;76.38
63051;SHT30;49136;47.416;19.402;2023-03-05T09:40:18;5.78;75.89
63051;SHT30;49136;47.416;19.402;2023-03-05T09:48:14;5.60;75.93
63051;SHT30;49136;47.416;19.402;2023-03-05T09:51:01;5.84;75.94
63051;SHT30;49136;47.416;19.402;2023-03-05T09:56:02;6.18;74.50
63051;SHT30;49136;47.416;19.402;2023-03-05T09:58:38;6.39;74.65
63051;SHT30;49136;47.416;19.402;2023-03-05T10:01:12;6.49;73.99
63051;SHT30;49136;47.416;19.402;2023-03-05T10:03:47;6.46;73.77
63051;SHT30;49136;47.416;19.402;2023-03-05T10:06:27;6.51;73.03
63051;SHT30;49136;47.416;19.402;2023-03-05T10:08:56;6.57;73.32
63051;SHT30;49136;47.416;19.402;2023-03-05T10:13:48;6.74;73.04
63051;SHT30;49136;47.416;19.402;2023-03-05T10:22:06;6.80;71.30
63051;SHT30;49136;47.416;19.402;2023-03-05T10:30:05;7.12;71.42
63051;SHT30;49136;47.416;19.402;2023-03-05T10:32:41;6.96;71.59
63051;SHT30;49136;47.416;19.402;2023-03-05T10:35:20;6.93;72.40
63051;SHT30;49136;47.416;19.402;2023-03-05T10:40:27;7.50;71.54
63051;SHT30;49136;47.416;19.402;2023-03-05T10:43:15;7.54;70.64
63051;SHT30;49136;47.416;19.402;2023-03-05T10:45:44;7.59;70.31
63051;SHT30;49136;47.416;19.402;2023-03-05T10:48:37;7.62;70.05
63051;SHT30;49136;47.416;19.402;2023-03-05T10:51:19;7.43;69.78
63051;SHT30;49136;47.416;19.402;2023-03-05T10:53:58;7.30;70.00
63051;SHT30;49136;47.416;19.402;2023-03-05T10:56:27;7.33;69.85
63051;SHT30;49136;47.416;19.402;2023-03-05T10:58:53;7.68;69.97
63051;SHT30;49136;47.416;19.402;2023-03-05T11:01:22;7.78;69.42
63051;SHT30;49136;47.416;19.402;2023-03-05T11:04:05;7.78;69.23
63051;SHT30;49136;47.416;19.402;2023-03-05T11:09:23;7.94;69.18
63051;SHT30;49136;47.416;19.402;2023-03-05T11:14:30;7.89;69.24
63051;SHT30;49136;47.416;19.402;2023-03-05T11:16:58;8.16;69.55
63051;SHT30;49136;47.416;19.402;2023-03-05T11:19:29;8.07;68.80
63051;SHT30;49136;47.416;19.402;2023-03-05T11:22:26;8.07;68.08
63051;SHT30;49136;47.416;19.402;2023-03-05T11:27:34;8.51;66.22
63051;SHT30;49136;47.416;19.402;2023-03-05T11:30:01;8.65;66.03
63051;SHT30;49136;47.416;19.402;2023-03-05T11:32:28;8.38;66.46
63051;SHT30;49136;47.416;19.402;2023-03-05T11:34:55;8.16;66.12
63051;SHT30;49136;47.416;19.402;2023-03-05T11:37:26;7.87;66.07
63051;SHT30;49136;47.416;19.402;2023-03-05T11:40:21;7.65;66.72
63051;SHT30;49136;47.416;19.402;2023-03-05T11:42:57;7.67;67.81
63051;SHT30;49136;47.416;19.402;2023-03-05T11:45:24;7.61;67.18
63051;SHT30;49136;47.416;19.402;2023-03-05T11:47:57;7.48;67.53
63051;SHT30;49136;47.416;19.402;2023-03-05T11:50:34;7.69;66.52
63051;SHT30;49136;47.416;19.402;2023-03-05T11:53:04;7.89;67.06
63051;SHT30;49136;47.416;19.402;2023-03-05T11:55:41;7.92;65.92
63051;SHT30;49136;47.416;19.402;2023-03-05T11:58:28;7.62;66.20
63051;SHT30;49136;47.416;19.402;2023-03-05T12:00:56;7.59;67.05
63051;SHT30;49136;47.416;19.402;2023-03-05T12:03:25;7.85;67.36
63051;SHT30;49136;47.416;19.402;2023-03-05T12:05:55;7.57;66.47
63051;SHT30;49136;47.416;19.402;2023-03-05T12:08:26;7.48;67.60
63051;SHT30;49136;47.416;19.402;2023-03-05T12:10:53;7.50;68.30
63051;SHT30;49136;47.416;19.402;2023-03-05T12:13:35;7.71;68.02
63051;SHT30;49136;47.416;19.402;2023-03-05T12:21:36;7.58;67.26
63051;SHT30;49136;47.416;19.402;2023-03-05T12:32:00;7.40;67.58
63051;SHT30;49136;47.416;19.402;2023-03-05T12:50:02;8.03;65.58
63051;SHT30;49136;47.416;19.402;2023-03-05T12:52:30;7.71;65.22
63051;SHT30;49136;47.416;19.402;2023-03-05T12:55:02;8.07;66.04
63051;SHT30;49136;47.416;19.402;2023-03-05T12:57:37;8.27;64.59
63051;SHT30;49136;47.416;19.402;2023-03-05T13:00:10;8.38;64.04
63051;SHT30;49136;47.416;19.402;2023-03-05T13:02:43;8.87;63.42
63051;SHT30;49136;47.416;19.402;2023-03-05T13:05:22;8.83;63.13
63051;SHT30;49136;47.416;19.402;2023-03-05T13:07:49;9.48;62.47
63051;SHT30;49136;47.416;19.402;2023-03-05T13:10:27;9.77;60.44
63051;SHT30;49136;47.416;19.402;2023-03-05T13:12:56;9.77;60.89
63051;SHT30;49136;47.416;19.402;2023-03-05T13:15:23;9.43;60.75
63051;SHT30;49136;47.416;19.402;2023-03-05T13:17:58;9.01;61.33
63051;SHT30;49136;47.416;19.402;2023-03-05T13:20:37;8.79;61.23
63051;SHT30;49136;47.416;19.402;2023-03-05T13:23:17;8.80;62.35
63051;SHT30;49136;47.416;19.402;2023-03-05T13:25:55;8.91;61.23
63051;SHT30;49136;47.416;19.402;2023-03-05T13:28:21;8.81;61.75
63051;SHT30;49136;47.416;19.402;2023-03-05T13:31:17;8.51;61.13
63051;SHT30;49136;47.416;19.402;2023-03-05T13:34:14;8.34;62.89
63051;SHT30;49136;47.416;19.402;2023-03-05T13:36:45;7.72;62.68
63051;SHT30;49136;47.416;19.402;2023-03-05T13:39:25;7.74;63.79
63051;SHT30;49136;47.416;19.402;2023-03-05T13:42:13;7.48;63.58
63051;SHT30;49136;47.416;19.402;2023-03-05T13:44:39;7.51;64.15
63051;SHT30;49136;47.416;19.402;2023-03-05T13:47:17;7.43;64.58
63051;SHT30;49136;47.416;19.402;2023-03-05T13:49:43;7.27;64.99
63051;SHT30;49136;47.416;19.402;2023-03-05T13:52:10;6.95;64.98
63051;SHT30;49136;47.416;19.402;2023-03-05T13:54:36;6.92;66.11
63051;SHT30;49136;47.416;19.402;2023-03-05T13:57:05;6.70;65.96
63051;SHT30;49136;47.416;19.402;2023-03-05T13:59:33;6.46;67.07
63051;SHT30;49136;47.416;19.402;2023-03-05T14:02:13;6.43;67.39
63051;SHT30;49136;47.416;19.402;2023-03-05T14:04:41;6.36;67.49
63051;SHT30;49136;47.416;19.402;2023-03-05T14:07:30;6.29;67.50
63051;SHT30;49136;47.416;19.402;2023-03-05T14:09:57;6.50;68.14
63051;SHT30;49136;47.416;19.402;2023-03-05T14:12:38;6.57;67.08
63051;SHT30;49136;47.416;19.402;2023-03-05T14:15:22;6.49;66.90
63051;SHT30;49136;47.416;19.402;2023-03-05T14:17:48;6.34;67.56
63051;SHT30;49136;47.416;19.402;2023-03-05T14:20:28;6.30;67.77
63051;SHT30;49136;47.416;19.402;2023-03-05T14:26:20;6.01;67.66
63051;SHT30;49136;47.416;19.402;2023-03-05T14:31:46;5.74;68.21
63051;SHT30;49136;47.416;19.402;2023-03-05T14:34:21;5.69;68.10
63051;SHT30;49136;47.416;19.402;2023-03-05T14:36:49;5.70;68.25
63051;SHT30;49136;47.416;19.402;2023-03-05T14:39:30;5.67;68.46
63051;SHT30;49136;47.416;19.402;2023-03-05T14:42:35;5.63;68.58
63051;SHT30;49136;47.416;19.402;2023-03-05T14:45:14;5.50;68.64
63051;SHT30;49136;47.416;19.402;2023-03-05T14:47:40;5.38;68.64
63051;SHT30;49136;47.416;19.402;2023-03-05T14:50:09;5.38;68.98
63051;SHT30;49136;47.416;19.402;2023-03-05T14:52:35;5.25;69.12
63051;SHT30;49136;47.416;19.402;2023-03-05T14:55:01;5.35;69.08
63051;SHT30;49136;47.416;19.402;2023-03-05T14:57:28;5.39;69.82
63051;SHT30;49136;47.416;19.402;2023-03-05T14:59:55;5.29;69.61
63051;SHT30;49136;47.416;19.402;2023-03-05T15:02:24;5.28;69.28
63051;SHT30;49136;47.416;19.402;2023-03-05T15:04:51;5.25;69.14
63051;SHT30;49136;47.416;19.402;2023-03-05T15:07:29;5.27;68.73
63051;SHT30;49136;47.416;19.402;2023-03-05T15:09:56;5.39;69.19
63051;SHT30;49136;47.416;19.402;2023-03-05T15:12:22;5.43;68.39
63051;SHT30;49136;47.416;19.402;2023-03-05T15:14:51;5.54;68.58
63051;SHT30;49136;47.416;19.402;2023-03-05T15:17:33;5.53;67.80
63051;SHT30;49136;47.416;19.402;2023-03-05T15:19:59;5.47;67.75
63051;SHT30;49136;47.416;19.402;2023-03-05T15:22:25;5.42;68.21
63051;SHT30;49136;47.416;19.402;2023-03-05T15:24:51;5.49;69.13
63051;SHT30;49136;47.416;19.402;2023-03-05T15:27:17;5.47;69.24
63051;SHT30;49136;47.416;19.402;2023-03-05T15:29:43;5.42;68.85
63051;SHT30;49136;47.416;19.402;2023-03-05T15:32:09;5.39;69.39
63051;SHT30;49136;47.416;19.402;2023-03-05T15:34:35;5.38;69.63
63051;SHT30;49136;47.416;19.402;2023-03-05T15:37:01;5.31;70.18
63051;SHT30;49136;47.416;19.402;2023-03-05T15:39:27;5.24;69.83
63051;SHT30;49136;47.416;19.402;2023-03-05T15:41:53;5.24;70.42
63051;SHT30;49136;47.416;19.402;2023-03-05T15:44:20;5.08;70.52
63051;SHT30;49136;47.416;19.402;2023-03-05T15:46:45;4.98;71.21
63051;SHT30;49136;47.416;19.402;2023-03-05T15:49:12;5.00;70.73
63051;SHT30;49136;47.416;19.402;2023-03-05T15:51:38;5.03;70.88
63051;SHT30;49136;47.416;19.402;2023-03-05T15:54:05;4.95;71.05
63051;SHT30;49136;47.416;19.402;2023-03-05T15:56:31;4.98;71.03
63051;SHT30;49136;47.416;19.402;2023-03-05T15:58:57;4.91;71.35
63051;SHT30;49136;47.416;19.402;2023-03-05T16:01:22;4.86;71.96
63051;SHT30;49136;47.416;19.402;2023-03-05T16:03:52;4.87;71.03
63051;SHT30;49136;47.416;19.402;2023-03-05T16:06:19;4.73;71.98
63051;SHT30;49136;47.416;19.402;2023-03-05T16:08:49;4.70;71.61
63051;SHT30;49136;47.416;19.402;2023-03-05T16:11:16;4.72;71.96
63051;SHT30;49136;47.416;19.402;2023-03-05T16:13:44;4.70;71.45
63051;SHT30;49136;47.416;19.402;2023-03-05T16:16:12;4.65;71.90
63051;SHT30;49136;47.416;19.402;2023-03-05T16:18:42;4.52;72.23
63051;SHT30;49136;47.416;19.402;2023-03-05T16:21:10;4.45;71.86
63051;SHT30;49136;47.416;19.402;2023-03-05T16:23:37;4.33;73.68
63051;SHT30;49136;47.416;19.402;2023-03-05T16:26:04;4.25;73.02
63051;SHT30;49136;47.416;19.402;2023-03-05T16:28:32;4.17;73.74
63051;SHT30;49136;47.416;19.402;2023-03-05T16:30:58;4.16;73.20
63051;SHT30;49136;47.416;19.402;2023-03-05T16:33:25;4.18;72.83
63051;SHT30;49136;47.416;19.402;2023-03-05T16:38:37;4.22;71.82
63051;SHT30;49136;47.416;19.402;2023-03-05T16:41:04;4.27;71.61
63051;SHT30;49136;47.416;19.402;2023-03-05T16:43:30;4.11;72.68
63051;SHT30;49136;47.416;19.402;2023-03-05T16:45:56;3.93;73.19
63051;SHT30;49136;47.416;19.402;2023-03-05T16:48:22;3.82;74.09
63051;SHT30;49136;47.416;19.402;2023-03-05T16:50:47;3.71;75.16
63051;SHT30;49136;47.416;19.402;2023-03-05T16:53:13;3.62;75.75